Merrill Field Anchorage US
ICAO: PAMR
IATA:
Category: Medium
Scheduled Services:

Elevation: 137 ft
TransAlt. 18000 ft.

Airport Communications:
ANCHORAGE APP/DEP:119.1
ATIS:124.25
CTAF:126
KENAI RDO:122.2
GND:121.7
KENAI RDO:122.3
TWR:126
UNICOM:122.95

PAMR Zoom In..

Runways:

(A) RW 05 length 2000 ft width 60 ft
---- / hdg 47

(B) RW 07 length 4000 ft width 100 ft
---- / hdg 71

(C) RW 16 length 2640 ft width 75 ft
---- / hdg 161

(D) RW 23 length 2000 ft width 60 ft
---- / hdg 227

(E) RW 25 length 4000 ft width 100 ft
---- / hdg 251

(F) RW 34 length 2640 ft width 75 ft
---- / hdg 341

Location; PAMR
Day. 22 / Time. 01.53 Zulu
* Altimeter: 29.37
* Temperature: 14° c. 57.2°f.
* Wind from: 290° Speed 03 kn.
Dewpoint: 03° c.
Visibility: 10 Statute Miles.
Clouds: Clear (automated report).

PAMR 220153Z AUTO 29003KT 10SM CLR 14/03 A2937 RMK AO2 SLP948 T01390033 TSNO


Wind From 290°
Speed 03 kn.

 
 
jpsmedia.com for Web Design SOUNDCLOUD worldairports.se 2018   terms of use